createdAt,value
2022-11-19T00:00:10.214Z,99077.94
2022-11-19T00:03:06.756Z,99088.06
2022-11-19T00:07:17.419Z,99067.13
2022-11-19T00:10:29.358Z,99082.91
2022-11-19T00:16:35.767Z,99076.50
2022-11-19T00:19:51.723Z,99080.50
2022-11-19T00:28:27.093Z,99084.44
2022-11-19T00:31:24.586Z,99088.38
2022-11-19T00:55:33.625Z,99092.53
2022-11-19T00:59:28.952Z,99092.16
2022-11-19T01:08:10.894Z,99088.03
2022-11-19T01:11:45.344Z,99090.91
2022-11-19T01:14:36.546Z,99081.56
2022-11-19T01:17:24.864Z,99104.53
2022-11-19T01:20:19.824Z,99106.50
2022-11-19T01:23:11.662Z,99094.16
2022-11-19T01:26:01.409Z,99100.66
2022-11-19T01:28:50.304Z,99122.84
2022-11-19T01:31:39.014Z,99120.56
2022-11-19T01:34:27.948Z,99125.72
2022-11-19T01:37:16.137Z,99124.72
2022-11-19T01:40:07.868Z,99126.72
2022-11-19T01:42:56.005Z,99115.25
2022-11-19T01:45:49.541Z,99122.75
2022-11-19T01:48:55.619Z,99126.72
2022-11-19T01:51:57.141Z,99120.19
2022-11-19T01:54:51.448Z,99110.47
2022-11-19T01:57:41.767Z,99134.66
2022-11-19T02:00:33.008Z,99110.00
2022-11-19T02:03:21.780Z,99128.31
2022-11-19T02:06:19.080Z,99137.50
2022-11-19T02:09:07.598Z,99135.19
2022-11-19T02:12:24.643Z,99136.88
2022-11-19T02:15:32.887Z,99137.72
2022-11-19T02:18:50.686Z,99129.06
2022-11-19T02:21:49.211Z,99138.34
2022-11-19T02:24:55.926Z,99136.88
2022-11-19T02:28:43.392Z,99144.31
2022-11-19T02:31:55.648Z,99140.69
2022-11-19T02:35:39.236Z,99141.03
2022-11-19T02:38:49.632Z,99136.19
2022-11-19T02:42:33.855Z,99135.34
2022-11-19T02:45:33.935Z,99137.66
2022-11-19T02:48:30.157Z,99148.63
2022-11-19T02:51:19.816Z,99152.38
2022-11-19T02:54:08.760Z,99157.13
2022-11-19T02:57:02.827Z,99150.13
2022-11-19T03:00:17.891Z,99151.78
2022-11-19T03:03:38.576Z,99152.75
2022-11-19T03:06:29.306Z,99162.38
2022-11-19T03:09:18.074Z,99160.84
2022-11-19T03:12:35.152Z,99163.88
2022-11-19T03:16:02.365Z,99161.16
2022-11-19T03:19:15.530Z,99167.03
2022-11-19T03:22:18.303Z,99180.25
2022-11-19T03:25:59.870Z,99174.09
2022-11-19T03:28:49.905Z,99174.53
2022-11-19T03:31:44.027Z,99174.53
2022-11-19T03:34:33.937Z,99178.03
2022-11-19T03:37:25.437Z,99179.97
2022-11-19T03:40:16.052Z,99187.31
2022-11-19T03:43:08.192Z,99186.13
2022-11-19T03:45:58.748Z,99187.00
2022-11-19T03:48:51.300Z,99190.44
2022-11-19T03:51:49.107Z,99193.59
2022-11-19T03:54:39.311Z,99189.25
2022-11-19T03:57:27.683Z,99192.41
2022-11-19T04:00:16.479Z,99194.38
2022-11-19T04:03:07.730Z,99198.34
2022-11-19T04:05:55.862Z,99197.56
2022-11-19T04:08:47.764Z,99203.19
2022-11-19T04:11:35.918Z,99201.59
2022-11-19T04:14:23.873Z,99206.72
2022-11-19T04:17:11.933Z,99211.19
2022-11-19T04:20:09.018Z,99216.41
2022-11-19T04:22:57.483Z,99215.63
2022-11-19T04:25:56.816Z,99219.09
2022-11-19T04:28:44.679Z,99228.19
2022-11-19T04:31:33.395Z,99222.34
2022-11-19T04:34:21.218Z,99224.53
2022-11-19T04:37:09.289Z,99219.06
2022-11-19T04:39:57.222Z,99225.09
2022-11-19T04:42:45.349Z,99226.19
2022-11-19T04:45:33.625Z,99216.69
2022-11-19T04:48:21.485Z,99229.50
2022-11-19T04:51:12.693Z,99223.72
2022-11-19T04:54:00.608Z,99235.47
2022-11-19T04:56:48.711Z,99238.13
2022-11-19T04:59:37.063Z,99232.34
2022-11-19T05:02:24.987Z,99235.03
2022-11-19T05:05:12.969Z,99237.91
2022-11-19T05:08:00.873Z,99236.78
2022-11-19T05:10:49.020Z,99241.47
2022-11-19T05:13:37.286Z,99250.38
2022-11-19T05:16:25.559Z,99251.03
2022-11-19T05:19:13.575Z,99255.38
2022-11-19T05:22:01.523Z,99260.22
2022-11-19T05:24:49.400Z,99260.50
2022-11-19T05:27:37.305Z,99253.66
2022-11-19T05:30:25.272Z,99263.75
2022-11-19T05:33:13.149Z,99268.88
2022-11-19T05:36:01.533Z,99263.69
2022-11-19T05:38:49.323Z,99260.47
2022-11-19T05:41:40.217Z,99261.31
2022-11-19T05:44:28.243Z,99274.22
2022-11-19T05:47:17.532Z,99260.09
2022-11-19T05:50:06.036Z,99263.63
2022-11-19T05:52:54.084Z,99274.25
2022-11-19T05:55:42.194Z,99274.03
2022-11-19T05:58:30.695Z,99280.78
2022-11-19T06:01:26.316Z,99281.88
2022-11-19T06:04:14.447Z,99286.09
2022-11-19T06:07:02.448Z,99280.72
2022-11-19T06:09:50.629Z,99274.56
2022-11-19T06:12:44.122Z,99287.41
2022-11-19T06:15:33.590Z,99295.22
2022-11-19T06:18:21.789Z,99293.28
2022-11-19T06:21:12.332Z,99292.81
2022-11-19T06:24:00.458Z,99296.00
2022-11-19T06:26:48.668Z,99299.53
2022-11-19T06:29:36.716Z,99306.53
2022-11-19T06:32:24.954Z,99310.34
2022-11-19T06:35:14.519Z,99315.19
2022-11-19T06:38:02.681Z,99313.50
2022-11-19T06:40:50.635Z,99315.88
2022-11-19T06:43:38.963Z,99318.53
2022-11-19T06:46:29.221Z,99311.09
2022-11-19T06:49:20.287Z,99314.22
2022-11-19T06:52:09.116Z,99301.31
2022-11-19T06:54:57.125Z,99311.47
2022-11-19T06:57:45.229Z,99321.94
2022-11-19T07:00:34.567Z,99321.47
2022-11-19T07:03:22.838Z,99322.34
2022-11-19T07:06:10.989Z,99330.47
2022-11-19T07:08:59.347Z,99334.75
2022-11-19T07:11:47.478Z,99339.09
2022-11-19T07:14:36.216Z,99338.03
2022-11-19T07:17:24.653Z,99338.00
2022-11-19T07:20:13.321Z,99344.59
2022-11-19T07:23:04.132Z,99352.72
2022-11-19T07:25:53.160Z,99344.16
2022-11-19T07:28:42.247Z,99341.41
2022-11-19T07:31:33.541Z,99342.84
2022-11-19T07:34:22.043Z,99352.28
2022-11-19T07:37:13.476Z,99357.00
2022-11-19T07:40:02.260Z,99343.41
2022-11-19T07:42:59.344Z,99356.31
2022-11-19T07:45:50.408Z,99352.75
2022-11-19T07:48:38.525Z,99360.97
2022-11-19T07:51:27.199Z,99356.34
2022-11-19T07:54:15.574Z,99361.03
2022-11-19T07:57:03.782Z,99368.25
2022-11-19T07:59:51.967Z,99360.34
2022-11-19T08:02:42.934Z,99363.19
2022-11-19T08:05:31.209Z,99360.63
2022-11-19T08:08:19.359Z,99369.94
2022-11-19T08:11:09.530Z,99381.19
2022-11-19T08:14:03.090Z,99381.66
2022-11-19T08:17:12.577Z,99383.28
2022-11-19T08:20:00.728Z,99383.09
2022-11-19T08:22:52.076Z,99387.88
2022-11-19T08:25:43.149Z,99390.16
2022-11-19T08:28:34.404Z,99394.41
2022-11-19T08:31:22.965Z,99391.78
2022-11-19T08:34:42.146Z,99385.50
2022-11-19T08:37:33.711Z,99385.50
2022-11-19T08:40:23.019Z,99403.69
2022-11-19T08:43:11.088Z,99402.91
2022-11-19T08:45:59.654Z,99401.25
2022-11-19T08:48:59.145Z,99408.41
2022-11-19T08:51:47.259Z,99391.91
2022-11-19T08:54:35.609Z,99409.22
2022-11-19T08:57:24.358Z,99417.09
2022-11-19T09:00:14.258Z,99408.00
2022-11-19T09:03:02.298Z,99413.03
2022-11-19T09:05:50.446Z,99415.91
2022-11-19T09:08:39.584Z,99420.50
2022-11-19T09:11:27.564Z,99425.56
2022-11-19T09:14:15.527Z,99427.59
2022-11-19T09:17:03.927Z,99419.28
2022-11-19T09:19:51.794Z,99422.28
2022-11-19T09:22:39.768Z,99427.50
2022-11-19T09:25:29.432Z,99432.88
2022-11-19T09:28:17.388Z,99439.25
2022-11-19T09:31:18.455Z,99439.00
2022-11-19T09:34:06.406Z,99437.88
2022-11-19T09:36:54.413Z,99439.59
2022-11-19T09:39:42.216Z,99441.47
2022-11-19T09:43:04.383Z,99447.69
2022-11-19T09:46:38.198Z,99456.09
2022-11-19T09:49:47.026Z,99454.47
2022-11-19T09:53:03.112Z,99448.28
2022-11-19T09:55:57.419Z,99445.94
2022-11-19T09:58:46.119Z,99450.59
2022-11-19T10:01:35.941Z,99439.47
2022-11-19T10:04:28.214Z,99459.63
2022-11-19T10:07:31.453Z,99458.28
2022-11-19T10:10:38.525Z,99458.84
2022-11-19T10:13:38.570Z,99449.03
2022-11-19T10:16:58.396Z,99448.47
2022-11-19T10:20:33.353Z,99462.25
2022-11-19T10:23:50.238Z,99448.97
2022-11-19T10:26:42.527Z,99450.88
2022-11-19T10:29:35.126Z,99457.22
2022-11-19T10:33:12.881Z,99456.69
2022-11-19T10:36:13.202Z,99457.75
2022-11-19T10:39:19.004Z,99458.44
2022-11-19T10:42:37.258Z,99456.41
2022-11-19T10:45:29.002Z,99457.28
2022-11-19T10:48:46.930Z,99452.84
2022-11-19T10:51:43.016Z,99457.00
2022-11-19T10:54:32.051Z,99453.47
2022-11-19T10:57:21.803Z,99450.63
2022-11-19T11:00:11.397Z,99455.31
2022-11-19T11:03:05.149Z,99447.44
2022-11-19T11:06:07.062Z,99451.41
2022-11-19T11:08:59.432Z,99449.75
2022-11-19T11:12:06.341Z,99440.78
2022-11-19T11:14:59.531Z,99441.59
2022-11-19T11:18:00.231Z,99457.00
2022-11-19T11:20:50.401Z,99460.09
2022-11-19T11:23:56.456Z,99457.31
2022-11-19T11:26:44.919Z,99456.75
2022-11-19T11:29:36.155Z,99452.88
2022-11-19T11:32:30.896Z,99449.16
2022-11-19T11:35:38.739Z,99444.31
2022-11-19T11:38:28.201Z,99444.00
2022-11-19T11:42:04.948Z,99447.81
2022-11-19T11:44:59.657Z,99446.53
2022-11-19T11:47:50.287Z,99449.41
2022-11-19T11:50:39.048Z,99448.06
2022-11-19T11:53:34.005Z,99432.78
2022-11-19T11:56:26.693Z,99453.59
2022-11-19T11:59:27.906Z,99442.03
2022-11-19T12:02:33.642Z,99447.47
2022-11-19T12:05:22.170Z,99444.44
2022-11-19T12:08:45.861Z,99440.41
2022-11-19T12:12:00.380Z,99440.97
2022-11-19T12:15:00.493Z,99441.78
2022-11-19T12:18:13.187Z,99437.06
2022-11-19T12:21:31.447Z,99442.88
2022-11-19T12:25:05.616Z,99431.34
2022-11-19T12:28:56.178Z,99437.53
2022-11-19T12:32:08.609Z,99440.97
2022-11-19T12:35:10.042Z,99448.53
2022-11-19T12:38:40.285Z,99439.66
2022-11-19T12:42:24.244Z,99437.22
2022-11-19T12:46:09.260Z,99431.44
2022-11-19T12:49:21.731Z,99459.13
2022-11-19T12:53:14.587Z,99443.66
2022-11-19T12:56:24.800Z,99450.72
2022-11-19T12:59:39.716Z,99457.38
2022-11-19T13:02:35.844Z,99450.16
2022-11-19T13:06:02.741Z,99446.03
2022-11-19T13:09:04.537Z,99452.09
2022-11-19T13:12:19.516Z,99438.09
2022-11-19T13:15:33.773Z,99433.84
2022-11-19T13:18:45.135Z,99443.69
2022-11-19T13:22:50.902Z,99446.81
2022-11-19T13:41:21.248Z,99443.41
2022-11-19T13:48:56.731Z,99450.94
2022-11-19T16:03:57.760Z,99493.75
2022-11-19T16:06:57.721Z,99485.22
2022-11-19T16:10:13.782Z,99489.09
2022-11-19T16:13:45.082Z,99492.63
2022-11-19T16:21:57.425Z,99517.81
2022-11-19T16:24:10.661Z,99506.97
2022-11-19T16:27:25.879Z,99510.16
2022-11-19T16:30:24.842Z,99511.38
2022-11-19T16:33:30.399Z,99495.00
2022-11-19T16:37:09.055Z,99501.53
2022-11-19T16:40:23.915Z,99512.84
2022-11-19T16:43:31.713Z,99501.16
2022-11-19T16:50:42.335Z,99508.91
2022-11-19T16:57:08.886Z,99485.56
2022-11-19T17:01:01.267Z,99501.84
2022-11-19T17:04:23.382Z,99502.22
2022-11-19T17:12:11.138Z,99501.09
2022-11-19T17:15:40.480Z,99500.88
2022-11-19T17:22:13.707Z,99511.47
2022-11-19T17:25:27.240Z,99508.25
2022-11-19T17:28:50.470Z,99508.94
2022-11-19T17:36:28.577Z,99509.84
2022-11-19T17:39:45.204Z,99504.38
2022-11-19T17:56:46.016Z,99533.59
2022-11-19T18:30:10.058Z,99529.97
2022-11-19T18:33:30.672Z,99538.19
2022-11-19T19:13:33.628Z,99559.38
2022-11-19T19:25:20.734Z,99554.94
2022-11-19T19:29:05.188Z,99575.25
2022-11-19T19:44:15.561Z,99570.25
2022-11-19T19:47:21.899Z,99575.34
2022-11-19T19:50:37.815Z,99567.94
2022-11-19T20:09:19.888Z,99576.88
2022-11-19T20:23:38.557Z,99568.06
2022-11-19T21:29:24.283Z,99585.19
2022-11-19T22:00:35.953Z,99570.31
2022-11-19T22:12:27.000Z,99585.91
2022-11-19T22:31:03.989Z,99570.38
2022-11-19T22:39:21.398Z,99574.69
2022-11-19T23:04:32.995Z,99544.34
